createdAt,value
2017-11-05T00:00:10.485Z,32.88
2017-11-05T00:02:38.364Z,33.13
2017-11-05T00:05:06.318Z,33.53
2017-11-05T00:07:34.389Z,35.13
2017-11-05T00:10:02.475Z,32.25
2017-11-05T00:12:31.440Z,33.55
2017-11-05T00:14:59.688Z,33.60
2017-11-05T00:17:27.212Z,31.98
2017-11-05T00:19:54.809Z,31.42
2017-11-05T00:22:23.666Z,34.45
2017-11-05T00:24:52.718Z,33.50
2017-11-05T00:27:20.997Z,32.65
2017-11-05T00:29:48.485Z,34.08
2017-11-05T00:32:16.732Z,34.20
2017-11-05T00:34:44.217Z,32.28
2017-11-05T00:37:11.680Z,31.85
2017-11-05T00:39:39.309Z,32.92
2017-11-05T00:42:07.554Z,32.38
2017-11-05T00:44:35.038Z,33.53
2017-11-05T00:47:02.540Z,34.92
2017-11-05T00:49:30.726Z,33.03
2017-11-05T00:51:58.205Z,35.38
2017-11-05T00:54:25.652Z,31.67
2017-11-05T00:56:53.924Z,32.65
2017-11-05T00:59:21.986Z,33.22
2017-11-05T01:01:50.226Z,34.03
2017-11-05T01:04:17.941Z,33.75
2017-11-05T01:06:45.428Z,36.38
2017-11-05T01:09:14.033Z,34.85
2017-11-05T01:11:42.303Z,35.60
2017-11-05T01:14:09.818Z,35.25
2017-11-05T01:16:37.319Z,34.60
2017-11-05T01:19:04.985Z,34.33
2017-11-05T01:21:32.513Z,35.92
2017-11-05T01:24:00.749Z,36.17
2017-11-05T01:26:28.219Z,33.10
2017-11-05T01:28:55.719Z,33.50
2017-11-05T01:31:23.256Z,30.23
2017-11-05T01:33:50.733Z,29.00
2017-11-05T01:36:18.408Z,31.05
2017-11-05T01:38:45.916Z,30.58
2017-11-05T01:41:13.397Z,29.48
2017-11-05T01:43:40.880Z,29.00
2017-11-05T01:46:09.111Z,28.05
2017-11-05T01:48:36.572Z,26.20
2017-11-05T01:51:04.096Z,27.23
2017-11-05T01:53:31.837Z,27.50
2017-11-05T01:56:00.828Z,27.27
2017-11-05T01:58:29.020Z,27.85
2017-11-05T02:00:56.508Z,28.55
2017-11-05T02:03:23.968Z,28.15
2017-11-05T02:05:53.033Z,29.20
2017-11-05T02:08:20.572Z,29.55
2017-11-05T02:10:48.036Z,26.77
2017-11-05T02:13:15.521Z,27.52
2017-11-05T02:15:43.879Z,28.83
2017-11-05T02:18:11.369Z,30.35
2017-11-05T02:20:39.608Z,28.90
2017-11-05T02:23:07.860Z,28.35
2017-11-05T02:25:35.327Z,30.00
2017-11-05T02:28:02.822Z,31.90
2017-11-05T02:30:30.969Z,28.08
2017-11-05T02:32:59.428Z,29.70
2017-11-05T02:35:31.962Z,30.92
2017-11-05T02:38:01.309Z,30.80
2017-11-05T02:40:28.792Z,30.37
2017-11-05T02:42:57.853Z,31.20
2017-11-05T02:45:25.378Z,29.75
2017-11-05T02:47:53.636Z,27.62
2017-11-05T02:50:21.284Z,27.35
2017-11-05T02:52:52.264Z,27.52
2017-11-05T02:55:20.099Z,26.92
2017-11-05T02:57:47.691Z,27.55
2017-11-05T03:00:16.842Z,27.73
2017-11-05T03:02:44.450Z,24.55
2017-11-05T03:05:11.921Z,25.92
2017-11-05T03:07:40.443Z,27.20
2017-11-05T03:10:07.905Z,27.75
2017-11-05T03:12:36.547Z,25.50
2017-11-05T03:15:04.000Z,28.85
2017-11-05T03:17:32.251Z,27.10
2017-11-05T03:19:59.728Z,26.95
2017-11-05T03:22:35.226Z,27.10
2017-11-05T03:25:05.696Z,26.27
2017-11-05T03:27:33.218Z,26.15
2017-11-05T03:30:00.709Z,26.52
2017-11-05T03:32:28.202Z,26.73
2017-11-05T03:34:55.684Z,25.05
2017-11-05T03:37:23.940Z,24.52
2017-11-05T03:39:51.426Z,25.77
2017-11-05T03:42:19.255Z,26.67
2017-11-05T03:44:47.446Z,25.90
2017-11-05T03:47:14.919Z,25.35
2017-11-05T03:49:42.379Z,24.83
2017-11-05T03:52:10.612Z,24.67
2017-11-05T03:54:39.028Z,25.55
2017-11-05T03:57:09.487Z,24.20
2017-11-05T03:59:36.944Z,25.55
2017-11-05T04:02:04.412Z,26.27
2017-11-05T04:04:31.881Z,23.27
2017-11-05T04:06:59.343Z,25.30
2017-11-05T04:09:26.797Z,22.35
2017-11-05T04:11:54.256Z,25.30
2017-11-05T04:14:24.425Z,24.67
2017-11-05T04:16:51.914Z,24.73
2017-11-05T04:19:19.373Z,24.05
2017-11-05T04:21:46.818Z,25.88
2017-11-05T04:24:15.871Z,23.87
2017-11-05T04:26:43.345Z,25.90
2017-11-05T04:29:12.281Z,25.62
2017-11-05T04:31:40.302Z,25.67
2017-11-05T04:34:08.512Z,24.25
2017-11-05T04:36:35.982Z,25.58
2017-11-05T04:39:04.182Z,23.77
2017-11-05T04:41:31.653Z,26.52
2017-11-05T04:43:59.120Z,26.67
2017-11-05T04:46:30.292Z,26.98
2017-11-05T04:48:57.774Z,25.23
2017-11-05T04:51:25.257Z,26.42
2017-11-05T04:53:52.735Z,27.15
2017-11-05T04:56:20.222Z,26.37
2017-11-05T04:58:47.697Z,27.48
2017-11-05T05:01:15.144Z,25.27
2017-11-05T05:03:42.652Z,26.27
2017-11-05T05:06:10.144Z,25.83
2017-11-05T05:08:37.591Z,27.33
2017-11-05T05:11:05.901Z,24.90
2017-11-05T05:13:33.364Z,24.67
2017-11-05T05:16:03.036Z,24.58
2017-11-05T05:18:30.496Z,25.73
2017-11-05T05:20:57.968Z,24.25
2017-11-05T05:23:25.418Z,25.42
2017-11-05T05:26:01.033Z,26.35
2017-11-05T05:28:28.489Z,26.42
2017-11-05T05:30:56.709Z,27.20
2017-11-05T05:33:24.192Z,26.58
2017-11-05T05:35:52.048Z,26.08
2017-11-05T05:38:20.307Z,25.17
2017-11-05T05:40:47.756Z,26.62
2017-11-05T05:43:15.879Z,27.90
2017-11-05T05:45:43.376Z,28.60
2017-11-05T05:48:11.290Z,28.15
2017-11-05T05:50:39.496Z,26.33
2017-11-05T05:53:06.971Z,26.05
2017-11-05T05:55:34.492Z,27.67
2017-11-05T05:58:01.952Z,26.00
2017-11-05T06:00:30.324Z,28.35
2017-11-05T06:02:57.829Z,26.58
2017-11-05T06:05:25.334Z,28.02
2017-11-05T06:07:53.610Z,27.55
2017-11-05T06:10:21.081Z,29.00
2017-11-05T06:12:48.652Z,29.17
2017-11-05T06:15:16.691Z,27.52
2017-11-05T06:17:44.236Z,29.35
2017-11-05T06:20:12.530Z,26.40
2017-11-05T06:22:40.866Z,28.20
2017-11-05T06:25:09.369Z,28.55
2017-11-05T06:27:36.919Z,28.87
2017-11-05T06:30:04.448Z,27.77
2017-11-05T06:32:32.000Z,27.13
2017-11-05T06:34:59.603Z,26.75
2017-11-05T06:37:27.253Z,26.70
2017-11-05T06:39:54.887Z,27.52
2017-11-05T06:42:22.582Z,26.25
2017-11-05T06:44:50.113Z,27.37
2017-11-05T06:47:17.616Z,26.87
2017-11-05T06:49:45.957Z,25.10
2017-11-05T06:52:13.460Z,26.92
2017-11-05T06:54:41.855Z,22.70
2017-11-05T06:57:09.336Z,22.17
2017-11-05T06:59:37.788Z,21.77
2017-11-05T07:02:06.032Z,21.17
2017-11-05T07:04:33.552Z,21.30
2017-11-05T07:07:01.054Z,18.45
2017-11-05T07:09:29.898Z,17.52
2017-11-05T07:11:57.863Z,16.05
2017-11-05T07:14:25.433Z,17.15
2017-11-05T07:16:53.585Z,16.62
2017-11-05T07:19:21.079Z,17.37
2017-11-05T07:21:49.756Z,19.02
2017-11-05T07:24:17.280Z,16.98
2017-11-05T07:26:46.766Z,18.45
2017-11-05T07:29:14.279Z,17.70
2017-11-05T07:31:45.762Z,16.08
2017-11-05T07:34:13.669Z,15.57
2017-11-05T07:36:41.240Z,17.27
2017-11-05T07:39:10.803Z,15.00
2017-11-05T07:41:38.943Z,15.10
2017-11-05T07:44:06.405Z,14.15
2017-11-05T07:46:35.336Z,15.10
2017-11-05T07:49:02.924Z,15.00
2017-11-05T07:51:30.368Z,17.73
2017-11-05T07:53:58.443Z,16.05
2017-11-05T07:56:26.930Z,15.57
2017-11-05T07:58:54.429Z,16.05
2017-11-05T08:01:23.380Z,15.40
2017-11-05T08:03:50.895Z,15.57
2017-11-05T08:06:19.418Z,16.75
2017-11-05T08:08:47.673Z,14.90
2017-11-05T08:11:15.746Z,17.00
2017-11-05T08:13:44.663Z,15.80
2017-11-05T08:16:13.108Z,17.98
2017-11-05T08:18:41.437Z,16.12
2017-11-05T08:21:08.885Z,17.17
2017-11-05T08:23:40.884Z,17.10
2017-11-05T08:26:10.603Z,16.23
2017-11-05T08:28:38.848Z,17.35
2017-11-05T08:31:06.873Z,18.65
2017-11-05T08:33:36.024Z,15.80
2017-11-05T08:36:04.481Z,17.90
2017-11-05T08:38:31.937Z,18.70
2017-11-05T08:41:01.904Z,15.98
2017-11-05T08:43:31.153Z,15.45
2017-11-05T08:45:59.834Z,17.08
2017-11-05T08:48:28.070Z,12.63
2017-11-05T08:50:59.526Z,9.40
2017-11-05T08:53:26.993Z,8.32
2017-11-05T08:55:55.189Z,5.60
2017-11-05T09:00:55.828Z,2.05
2017-11-05T09:03:24.116Z,1.80
2017-11-05T09:05:52.316Z,2.10
2017-11-05T09:08:21.077Z,1.37
2017-11-05T09:10:48.545Z,1.35
2017-11-05T09:13:16.001Z,1.20
2017-11-05T09:15:43.465Z,1.25
2017-11-05T09:18:10.949Z,1.75
2017-11-05T09:20:38.423Z,1.30
2017-11-05T09:23:05.889Z,1.23
2017-11-05T09:25:33.466Z,1.08
2017-11-05T09:28:01.949Z,1.70
2017-11-05T09:30:29.393Z,1.23
2017-11-05T09:32:56.860Z,1.08
2017-11-05T09:35:27.089Z,1.20
2017-11-05T09:37:55.556Z,1.25
2017-11-05T09:40:23.944Z,1.23
2017-11-05T09:42:51.459Z,1.10
2017-11-05T09:45:18.934Z,1.10
2017-11-05T09:47:46.360Z,2.67
2017-11-05T09:50:14.226Z,1.35
2017-11-05T09:52:42.480Z,0.95
2017-11-05T09:55:10.377Z,1.20
2017-11-05T09:57:37.816Z,1.67
2017-11-05T10:00:05.297Z,0.80
2017-11-05T10:02:32.722Z,2.78
2017-11-05T10:05:01.168Z,2.37
2017-11-05T10:07:32.988Z,1.30
2017-11-05T10:10:02.669Z,1.58
2017-11-05T10:12:30.124Z,1.27
2017-11-05T10:14:59.449Z,1.30
2017-11-05T10:17:26.950Z,1.25
2017-11-05T10:19:55.322Z,1.75
2017-11-05T10:22:22.807Z,1.20
2017-11-05T10:24:51.924Z,1.23
2017-11-05T10:27:20.361Z,1.42
2017-11-05T10:29:47.916Z,1.30
2017-11-05T10:32:15.381Z,0.90
2017-11-05T10:34:43.739Z,1.35
2017-11-05T10:37:12.135Z,1.00
2017-11-05T10:39:41.240Z,1.05
2017-11-05T10:42:12.182Z,0.90
2017-11-05T10:44:39.682Z,0.98
2017-11-05T10:47:07.705Z,1.08
2017-11-05T10:49:35.187Z,1.50
2017-11-05T10:52:02.645Z,1.17
2017-11-05T10:54:30.817Z,1.20
2017-11-05T10:56:58.289Z,2.10
2017-11-05T10:59:26.471Z,1.45
2017-11-05T11:01:54.680Z,1.40
2017-11-05T11:04:22.107Z,1.77
2017-11-05T11:06:49.568Z,2.00
2017-11-05T11:09:17.013Z,2.15
2017-11-05T11:11:44.449Z,2.35
2017-11-05T11:14:12.747Z,2.45
2017-11-05T11:16:40.993Z,1.85
2017-11-05T11:19:08.452Z,2.62
2017-11-05T11:21:35.887Z,3.42
2017-11-05T11:24:04.138Z,2.97
2017-11-05T11:26:31.573Z,2.50
2017-11-05T11:29:03.117Z,2.47
2017-11-05T11:31:31.421Z,2.90
2017-11-05T11:33:59.705Z,2.70
2017-11-05T11:36:27.938Z,2.95
2017-11-05T11:38:55.917Z,2.65
2017-11-05T11:41:23.430Z,2.72
2017-11-05T11:43:50.909Z,2.33
2017-11-05T11:46:19.392Z,3.15
2017-11-05T11:48:47.338Z,3.62
2017-11-05T11:51:14.774Z,4.45
2017-11-05T11:53:42.213Z,3.22
2017-11-05T11:56:09.686Z,3.35
2017-11-05T11:58:37.192Z,3.25
2017-11-05T12:01:04.671Z,4.47
2017-11-05T12:03:32.108Z,4.05
2017-11-05T12:05:59.581Z,3.70
2017-11-05T12:08:31.423Z,3.47
2017-11-05T12:10:59.646Z,3.20
2017-11-05T12:13:31.683Z,3.45
2017-11-05T12:15:59.135Z,2.70
2017-11-05T12:18:27.495Z,4.00
2017-11-05T12:20:54.969Z,2.62
2017-11-05T12:23:23.800Z,3.65
2017-11-05T12:25:54.794Z,3.50
2017-11-05T12:28:22.315Z,2.95
2017-11-05T12:30:49.749Z,2.80
2017-11-05T12:33:17.996Z,2.60
2017-11-05T12:35:46.628Z,3.12
2017-11-05T12:38:15.091Z,2.25
2017-11-05T12:40:43.944Z,2.50
2017-11-05T12:43:12.808Z,3.30
2017-11-05T12:45:40.976Z,3.10
2017-11-05T12:48:08.424Z,2.30
2017-11-05T12:50:38.495Z,2.47
2017-11-05T12:53:05.921Z,3.33
2017-11-05T12:55:35.540Z,3.00
2017-11-05T12:58:06.386Z,2.62
2017-11-05T13:00:33.926Z,3.78
2017-11-05T13:03:02.151Z,3.75
2017-11-05T13:05:29.595Z,3.33
2017-11-05T13:07:58.850Z,3.05
2017-11-05T13:10:26.285Z,2.70
2017-11-05T13:13:00.543Z,3.00
2017-11-05T13:15:27.989Z,3.20
2017-11-05T13:17:55.456Z,2.70
2017-11-05T13:20:22.997Z,2.33
2017-11-05T13:22:51.235Z,2.50
2017-11-05T13:25:18.707Z,1.85
2017-11-05T13:27:46.158Z,1.92
2017-11-05T13:30:13.824Z,1.77
2017-11-05T13:32:46.045Z,2.50
2017-11-05T13:35:13.487Z,2.25
2017-11-05T13:37:41.716Z,3.22
2017-11-05T13:40:09.799Z,2.15
2017-11-05T13:42:37.229Z,3.90
2017-11-05T13:45:06.042Z,2.58
2017-11-05T13:47:34.224Z,2.28
2017-11-05T13:50:02.733Z,2.70
2017-11-05T13:52:30.938Z,2.58
2017-11-05T13:55:01.482Z,2.70
2017-11-05T13:57:29.694Z,2.45
2017-11-05T13:59:57.227Z,2.28
2017-11-05T14:02:24.772Z,2.40
2017-11-05T14:04:52.957Z,2.70
2017-11-05T14:07:20.438Z,2.70
2017-11-05T14:09:49.080Z,2.83
2017-11-05T14:12:17.313Z,3.55
2017-11-05T14:14:48.205Z,2.62
2017-11-05T14:17:17.814Z,3.17
2017-11-05T14:19:45.264Z,2.58
2017-11-05T14:22:12.705Z,2.92
2017-11-05T14:24:40.154Z,3.40
2017-11-05T14:27:08.596Z,3.20
2017-11-05T14:29:36.092Z,3.90
2017-11-05T14:32:04.315Z,3.33
2017-11-05T14:34:31.789Z,2.80
2017-11-05T14:36:59.212Z,4.25
2017-11-05T14:39:26.709Z,4.43
2017-11-05T14:41:54.186Z,3.72
2017-11-05T14:44:21.650Z,4.03
2017-11-05T14:46:51.216Z,5.30
2017-11-05T14:49:18.723Z,4.82
2017-11-05T14:51:46.914Z,5.22
2017-11-05T14:54:14.460Z,5.00
2017-11-05T14:56:41.886Z,4.72
2017-11-05T14:59:09.376Z,5.87
2017-11-05T15:01:36.810Z,5.75
2017-11-05T15:04:04.297Z,6.28
2017-11-05T15:06:32.492Z,5.72
2017-11-05T15:09:01.765Z,5.72
2017-11-05T15:11:29.276Z,6.05
2017-11-05T15:13:56.702Z,5.57
2017-11-05T15:16:24.144Z,5.70
2017-11-05T15:18:51.589Z,5.62
2017-11-05T15:21:20.020Z,6.20
2017-11-05T15:23:47.469Z,6.60
2017-11-05T15:26:15.719Z,5.12
2017-11-05T15:28:43.161Z,5.78
2017-11-05T15:31:10.619Z,5.18
2017-11-05T15:33:38.137Z,5.53
2017-11-05T15:36:05.593Z,5.95
2017-11-05T15:38:33.058Z,5.68
2017-11-05T15:41:00.512Z,5.00
2017-11-05T15:43:27.984Z,5.82
2017-11-05T15:45:55.444Z,5.85
2017-11-05T15:48:23.696Z,5.53
2017-11-05T15:50:51.928Z,6.55
2017-11-05T15:53:19.371Z,5.68
2017-11-05T15:55:46.920Z,5.37
2017-11-05T15:58:14.349Z,5.70
2017-11-05T16:00:42.571Z,6.22
2017-11-05T16:03:10.016Z,5.18
2017-11-05T16:05:42.061Z,6.05
2017-11-05T16:08:09.516Z,4.97
2017-11-05T16:10:37.557Z,5.90
2017-11-05T16:13:05.009Z,5.87
2017-11-05T16:15:33.028Z,5.50
2017-11-05T16:18:01.256Z,5.47
2017-11-05T16:20:31.095Z,5.18
2017-11-05T16:22:58.550Z,5.43
2017-11-05T16:25:26.292Z,6.03
2017-11-05T16:27:53.722Z,6.60
2017-11-05T16:30:23.035Z,5.60
2017-11-05T16:32:50.617Z,5.60
2017-11-05T16:35:19.302Z,5.68
2017-11-05T16:37:46.767Z,5.00
2017-11-05T16:40:18.329Z,5.65
2017-11-05T16:42:45.812Z,5.97
2017-11-05T16:45:13.860Z,5.70
2017-11-05T16:47:41.366Z,6.47
2017-11-05T16:50:08.834Z,5.53
2017-11-05T16:52:37.092Z,5.10
2017-11-05T16:55:06.580Z,6.15
2017-11-05T16:57:34.056Z,5.85
2017-11-05T17:00:01.533Z,4.80
2017-11-05T17:02:28.938Z,5.57
2017-11-05T17:04:56.810Z,5.03
2017-11-05T17:07:25.292Z,5.35
2017-11-05T17:09:52.755Z,4.80
2017-11-05T17:12:23.907Z,5.12
2017-11-05T17:14:51.327Z,4.82
2017-11-05T17:17:18.796Z,4.47
2017-11-05T17:19:46.229Z,4.95
2017-11-05T17:22:14.117Z,4.80
2017-11-05T17:24:41.562Z,5.03
2017-11-05T17:27:10.265Z,5.65
2017-11-05T17:29:39.093Z,5.15
2017-11-05T17:32:06.564Z,6.10
2017-11-05T17:34:34.040Z,5.95
2017-11-05T17:37:02.088Z,5.07
2017-11-05T17:39:30.049Z,5.37
2017-11-05T17:41:57.530Z,5.60
2017-11-05T17:44:24.989Z,4.18
2017-11-05T17:46:52.466Z,4.62
2017-11-05T17:49:19.941Z,4.35
2017-11-05T17:51:48.128Z,4.28
2017-11-05T17:54:15.590Z,3.92
2017-11-05T17:56:43.930Z,4.25
2017-11-05T17:59:11.382Z,3.90
2017-11-05T18:01:38.850Z,5.05
2017-11-05T18:04:06.322Z,4.30
2017-11-05T18:06:33.802Z,4.35
2017-11-05T18:09:01.822Z,4.65
2017-11-05T18:11:29.309Z,4.97
2017-11-05T18:13:56.765Z,4.10
2017-11-05T18:16:24.295Z,4.68
2017-11-05T18:18:52.993Z,4.25
2017-11-05T18:21:21.138Z,4.20
2017-11-05T18:23:48.576Z,5.03
2017-11-05T18:26:16.046Z,4.70
2017-11-05T18:28:43.463Z,3.70
2017-11-05T18:31:10.917Z,5.37
2017-11-05T18:33:39.069Z,4.70
2017-11-05T18:36:08.040Z,5.37
2017-11-05T18:38:36.032Z,4.20
2017-11-05T18:41:03.512Z,4.20
2017-11-05T18:43:31.741Z,3.50
2017-11-05T18:45:59.335Z,3.45
2017-11-05T18:48:28.815Z,3.20
2017-11-05T18:50:57.119Z,3.12
2017-11-05T18:53:27.062Z,3.80
2017-11-05T18:55:54.492Z,3.25
2017-11-05T18:58:22.453Z,2.70
2017-11-05T19:00:49.881Z,3.15
2017-11-05T19:03:21.897Z,3.55
2017-11-05T19:05:49.352Z,3.25
2017-11-05T19:08:18.032Z,3.47
2017-11-05T19:10:48.388Z,3.80
2017-11-05T19:13:16.780Z,3.33
2017-11-05T19:15:48.542Z,4.40
2017-11-05T19:18:16.738Z,4.12
2017-11-05T19:20:46.266Z,3.95
2017-11-05T19:23:14.610Z,4.72
2017-11-05T19:25:42.130Z,4.20
2017-11-05T19:28:10.922Z,4.15
2017-11-05T19:30:39.153Z,3.62
2017-11-05T19:33:07.189Z,4.28
2017-11-05T19:35:36.148Z,4.40
2017-11-05T19:38:04.437Z,5.90
2017-11-05T19:40:31.899Z,3.90
2017-11-05T19:43:03.699Z,4.20
2017-11-05T19:45:31.132Z,4.40
2017-11-05T19:47:59.349Z,5.25
2017-11-05T19:50:26.852Z,4.70
2017-11-05T19:52:54.304Z,5.50
2017-11-05T19:55:21.762Z,5.07
2017-11-05T19:57:49.204Z,5.32
2017-11-05T20:00:17.478Z,5.15
2017-11-05T20:02:45.007Z,6.47
2017-11-05T20:05:13.892Z,5.87
2017-11-05T20:07:42.128Z,5.60
2017-11-05T20:10:09.583Z,6.60
2017-11-05T20:12:37.044Z,5.90
2017-11-05T20:15:05.261Z,6.30
2017-11-05T20:17:32.729Z,7.62
2017-11-05T20:20:00.198Z,6.75
2017-11-05T20:22:27.643Z,7.32
2017-11-05T20:24:55.629Z,8.13
2017-11-05T20:27:23.086Z,7.82
2017-11-05T20:29:51.565Z,7.85
2017-11-05T20:32:22.270Z,7.03
2017-11-05T20:34:49.861Z,6.78
2017-11-05T20:37:17.340Z,5.12
2017-11-05T20:39:45.201Z,5.70
2017-11-05T20:42:13.492Z,6.57
2017-11-05T20:44:41.700Z,5.50
2017-11-05T20:47:09.315Z,5.10
2017-11-05T20:49:36.825Z,5.60
2017-11-05T20:52:05.131Z,5.78
2017-11-05T20:54:33.124Z,6.10
2017-11-05T20:57:00.600Z,6.18
2017-11-05T20:59:28.806Z,6.60
2017-11-05T21:01:57.260Z,6.05
2017-11-05T21:04:24.747Z,6.35
2017-11-05T21:06:52.191Z,5.28
2017-11-05T21:09:19.660Z,5.68
2017-11-05T21:11:47.149Z,6.20
2017-11-05T21:14:14.595Z,7.20
2017-11-05T21:16:42.368Z,5.90
2017-11-05T21:19:09.801Z,6.62
2017-11-05T21:21:38.057Z,5.43
2017-11-05T21:24:05.526Z,5.05
2017-11-05T21:26:35.355Z,5.97
2017-11-05T21:29:02.784Z,6.28
2017-11-05T21:31:30.994Z,6.25
2017-11-05T21:33:58.452Z,6.37
2017-11-05T21:36:26.676Z,6.40
2017-11-05T21:38:54.477Z,6.75
2017-11-05T21:41:21.964Z,7.10
2017-11-05T21:43:50.175Z,5.75
2017-11-05T21:46:17.616Z,6.97
2017-11-05T21:48:45.050Z,6.87
2017-11-05T21:51:12.531Z,6.57
2017-11-05T21:53:39.967Z,6.60
2017-11-05T21:56:07.446Z,6.53
2017-11-05T21:58:34.876Z,6.85
2017-11-05T22:01:02.336Z,6.57
2017-11-05T22:03:29.792Z,5.78
2017-11-05T22:05:58.028Z,6.43
2017-11-05T22:08:25.488Z,7.90
2017-11-05T22:10:53.020Z,6.55
2017-11-05T22:13:20.475Z,7.30
2017-11-05T22:15:47.904Z,7.37
2017-11-05T22:18:16.172Z,7.87
2017-11-05T22:20:44.381Z,7.70
2017-11-05T22:23:11.835Z,7.28
2017-11-05T22:25:40.057Z,7.93
2017-11-05T22:28:08.501Z,8.40
2017-11-05T22:30:35.959Z,7.47
2017-11-05T22:33:04.152Z,8.88
2017-11-05T22:35:31.632Z,7.68
2017-11-05T22:38:00.336Z,7.85
2017-11-05T22:40:27.776Z,8.45
2017-11-05T22:42:55.341Z,8.57
2017-11-05T22:45:22.797Z,7.85
2017-11-05T22:47:51.036Z,8.23
2017-11-05T22:50:19.974Z,8.68
2017-11-05T22:52:48.169Z,9.85
2017-11-05T22:55:16.474Z,10.32
2017-11-05T22:57:44.691Z,8.77
2017-11-05T23:00:14.072Z,8.20
2017-11-05T23:02:41.541Z,9.38
2017-11-05T23:05:08.986Z,9.77
2017-11-05T23:07:36.449Z,8.65
2017-11-05T23:10:03.908Z,9.57
2017-11-05T23:12:31.408Z,9.90
2017-11-05T23:14:58.849Z,9.20
2017-11-05T23:17:27.083Z,9.18
2017-11-05T23:19:54.520Z,8.48
2017-11-05T23:22:21.956Z,8.10
2017-11-05T23:24:50.421Z,8.90
2017-11-05T23:27:17.849Z,8.77
2017-11-05T23:29:46.082Z,8.68
2017-11-05T23:34:37.640Z,8.98
2017-11-05T23:37:05.144Z,9.13
2017-11-05T23:39:32.571Z,8.50
2017-11-05T23:42:01.157Z,9.43
2017-11-05T23:44:30.236Z,8.45
2017-11-05T23:46:58.372Z,8.38
2017-11-05T23:49:26.573Z,8.40
2017-11-05T23:51:54.052Z,7.90
2017-11-05T23:54:21.484Z,8.02
2017-11-05T23:56:48.937Z,8.77
2017-11-05T23:59:16.404Z,7.20
